Time;durP1;ratioP1;P1;durP2;ratioP2;P2;SDS_P1;SDS_P2;PMS_P1;PMS_P2;Temp;Humidity;BMP_temperature;BMP_pressure;BME280_temperature;BME280_humidity;BME280_pressure;Samples;Min_cycle;Max_cycle;Signal;HPM_P1;HPM_P2
2024/03/08 00:00:26;;;;;;;;;;;;;;;;;;5013763;28;20033;-57
2024/03/08 00:02:51;;;;;;;26.48;12.63;;;;;;;;;;5014696;28;19992;-57
2024/03/08 00:05:18;;;;;;;27.93;12.30;;;;;;;;;;5025583;28;20095;-57
2024/03/08 00:07:43;;;;;;;27.30;11.68;;;;;;;;;;5011394;28;20044;-58
2024/03/08 00:10:11;;;;;;;28.77;13.63;;;;;;;;;;5009411;28;20113;-58
2024/03/08 00:12:36;;;;;;;27.50;12.68;;;;;;;;;;5025401;28;20060;-57
2024/03/08 00:15:01;;;;;;;28.38;13.70;;;;;;;;;;5028016;28;20126;-57
2024/03/08 00:17:27;;;;;;;32.55;14.10;;;;;;;;;;5031174;28;20084;-56
2024/03/08 00:19:52;;;;;;;28.73;13.27;;;;;;;;;;5014910;28;20033;-57
2024/03/08 00:22:17;;;;;;;31.25;14.02;;;;;;;;;;5008367;28;20029;-59
2024/03/08 00:24:42;;;;;;;30.77;14.23;;;;;;;;;;5003882;28;20477;-58
2024/03/08 00:27:08;;;;;;;29.83;13.18;;;;;;;;;;4997075;28;20030;-57
2024/03/08 00:29:34;;;;;;;33.35;15.77;;;;;;;;;;5008447;28;20057;-58
2024/03/08 00:31:59;;;;;;;34.20;15.27;;;;;;;;;;5007003;28;20785;-58
2024/03/08 00:34:24;;;;;;;35.00;15.98;;;;;;;;;;5006706;28;20056;-58
2024/03/08 00:36:51;;;;;;;34.13;15.32;;;;;;;;;;5005640;28;20488;-57
2024/03/08 00:39:16;;;;;;;29.38;13.80;;;;;;;;;;5007005;28;20262;-58
2024/03/08 00:41:42;;;;;;;31.95;15.68;;;;;;;;;;5007394;28;20476;-60
2024/03/08 00:44:07;;;;;;;31.60;15.38;;;;;;;;;;5006396;28;20026;-58
2024/03/08 00:46:32;;;;;;;38.20;16.93;;;;;;;;;;5008131;28;20120;-56
2024/03/08 00:48:57;;;;;;;39.57;17.57;;;;;;;;;;5008743;28;20040;-55
2024/03/08 00:51:22;;;;;;;38.73;17.67;;;;;;;;;;5006302;28;20033;-56
2024/03/08 00:53:47;;;;;;;40.73;17.00;;;;;;;;;;5006709;28;20100;-58
2024/03/08 00:56:13;;;;;;;32.63;15.50;;;;;;;;;;5006289;28;20033;-56
2024/03/08 00:58:38;;;;;;;29.27;12.93;;;;;;;;;;5006717;28;20018;-57
2024/03/08 01:01:04;;;;;;;30.03;13.33;;;;;;;;;;5003856;28;20029;-56
2024/03/08 01:03:31;;;;;;;29.23;13.52;;;;;;;;;;4998408;28;20049;-58
2024/03/08 01:05:56;;;;;;;26.98;13.48;;;;;;;;;;5012663;28;20048;-57
2024/03/08 01:08:23;;;;;;;32.40;12.60;;;;;;;;;;5018529;28;20049;-58
2024/03/08 01:10:50;;;;;;;30.23;13.95;;;;;;;;;;5027259;28;20425;-57
2024/03/08 01:13:15;;;;;;;30.63;13.55;;;;;;;;;;5025964;28;20032;-59
2024/03/08 01:15:41;;;;;;;30.13;13.52;;;;;;;;;;5013776;28;20034;-57
2024/03/08 01:18:06;;;;;;;30.35;14.57;;;;;;;;;;5005985;28;20512;-58
2024/03/08 01:20:31;;;;;;;26.88;13.77;;;;;;;;;;4992609;28;20097;-58
2024/03/08 01:22:57;;;;;;;31.10;13.90;;;;;;;;;;5003175;28;20457;-58
2024/03/08 01:25:22;;;;;;;31.92;13.60;;;;;;;;;;5005891;28;20113;-57
2024/03/08 01:27:48;;;;;;;29.35;14.07;;;;;;;;;;5004714;28;20030;-58
2024/03/08 01:30:13;;;;;;;32.17;14.75;;;;;;;;;;4961691;28;1004014;-56
2024/03/08 01:32:38;;;;;;;30.53;13.40;;;;;;;;;;5007371;28;20117;-59
2024/03/08 01:35:03;;;;;;;30.90;13.03;;;;;;;;;;5011474;28;20088;-58
2024/03/08 01:37:29;;;;;;;28.42;13.82;;;;;;;;;;5006448;28;20030;-56
2024/03/08 01:39:54;;;;;;;31.02;14.07;;;;;;;;;;5007281;28;20029;-57
2024/03/08 01:42:19;;;;;;;31.47;14.20;;;;;;;;;;5006654;28;20029;-58
2024/03/08 01:44:44;;;;;;;27.97;13.40;;;;;;;;;;5006636;28;20044;-57
2024/03/08 01:47:11;;;;;;;31.47;14.67;;;;;;;;;;5015983;28;20108;-56
2024/03/08 01:49:36;;;;;;;34.22;14.77;;;;;;;;;;5008082;28;20037;-57
2024/03/08 01:52:01;;;;;;;32.53;15.15;;;;;;;;;;5005834;28;20026;-57
2024/03/08 01:54:26;;;;;;;32.87;14.63;;;;;;;;;;4994291;28;20084;-58
2024/03/08 01:56:53;;;;;;;30.47;13.77;;;;;;;;;;5007071;28;20029;-57
2024/03/08 01:59:19;;;;;;;27.70;13.98;;;;;;;;;;5006854;28;20026;-57
2024/03/08 02:01:44;;;;;;;29.70;14.05;;;;;;;;;;5006339;28;20026;-58
2024/03/08 02:04:09;;;;;;;31.73;14.37;;;;;;;;;;5004397;28;20041;-57
2024/03/08 02:06:34;;;;;;;28.92;13.52;;;;;;;;;;5010037;28;20500;-58
2024/03/08 02:09:00;;;;;;;30.42;14.40;;;;;;;;;;5008503;28;20026;-57
2024/03/08 02:11:25;;;;;;;32.08;14.23;;;;;;;;;;4996526;28;20030;-58
2024/03/08 02:13:50;;;;;;;31.80;14.23;;;;;;;;;;5006112;28;20026;-58
2024/03/08 02:16:22;;;;;;;32.95;14.73;;;;;;;;;;5007301;28;20064;-58
2024/03/08 02:18:47;;;;;;;31.00;13.07;;;;;;;;;;5007096;28;20030;-56
2024/03/08 02:21:12;;;;;;;31.08;14.23;;;;;;;;;;5006983;28;20134;-58
2024/03/08 02:23:37;;;;;;;30.00;13.27;;;;;;;;;;5004321;28;20022;-56
2024/03/08 02:26:04;;;;;;;30.90;14.83;;;;;;;;;;5007329;28;20494;-58
2024/03/08 02:28:29;;;;;;;36.67;16.25;;;;;;;;;;5012740;28;20041;-58
2024/03/08 02:30:55;;;;;;;35.05;14.93;;;;;;;;;;4999932;28;20518;-58
2024/03/08 02:33:20;;;;;;;31.95;15.18;;;;;;;;;;5013278;28;20049;-57
2024/03/08 02:35:46;;;;;;;33.27;15.13;;;;;;;;;;5012811;28;20061;-58
2024/03/08 02:38:12;;;;;;;35.22;14.93;;;;;;;;;;5012115;28;20125;-56
2024/03/08 02:40:37;;;;;;;34.42;15.52;;;;;;;;;;5011970;28;20022;-57
2024/03/08 02:43:04;;;;;;;33.47;15.32;;;;;;;;;;5010249;28;20047;-59
2024/03/08 02:45:29;;;;;;;32.58;14.07;;;;;;;;;;5010011;28;20498;-57
2024/03/08 02:47:56;;;;;;;31.95;14.88;;;;;;;;;;5000203;28;20030;-56
2024/03/08 02:50:22;;;;;;;31.30;14.45;;;;;;;;;;5012666;28;20022;-58
2024/03/08 02:52:47;;;;;;;32.15;14.48;;;;;;;;;;5008269;28;20093;-58
2024/03/08 02:55:16;;;;;;;26.53;13.23;;;;;;;;;;5010763;28;20069;-57
2024/03/08 02:57:41;;;;;;;32.45;14.43;;;;;;;;;;5010428;28;20021;-57
2024/03/08 03:00:09;;;;;;;33.83;14.75;;;;;;;;;;5010268;28;20395;-57
2024/03/08 03:02:34;;;;;;;35.13;15.70;;;;;;;;;;5009985;28;20091;-56
2024/03/08 03:05:02;;;;;;;34.67;15.00;;;;;;;;;;5010186;28;20038;-56
2024/03/08 03:07:27;;;;;;;34.50;14.10;;;;;;;;;;5008381;28;20006;-57
2024/03/08 03:09:52;;;;;;;31.00;14.00;;;;;;;;;;5004910;28;20500;-58
2024/03/08 03:12:18;;;;;;;39.40;16.45;;;;;;;;;;5012586;28;20089;-57
2024/03/08 03:14:43;;;;;;;35.53;15.70;;;;;;;;;;5011887;28;20382;-57
2024/03/08 03:17:09;;;;;;;35.75;15.68;;;;;;;;;;5014095;28;20049;-59
2024/03/08 03:19:35;;;;;;;31.83;14.98;;;;;;;;;;5007778;28;20048;-57
2024/03/08 03:22:02;;;;;;;35.00;15.13;;;;;;;;;;5005626;28;20115;-56
2024/03/08 03:24:29;;;;;;;;;;;;;;;;;;5011768;28;20015;-58
2024/03/08 03:26:54;;;;;;;32.63;14.68;;;;;;;;;;5010976;28;19917;-59
2024/03/08 03:29:20;;;;;;;35.10;15.23;;;;;;;;;;5010048;28;20037;-57
2024/03/08 03:31:46;;;;;;;32.15;14.80;;;;;;;;;;5009466;28;20026;-57
2024/03/08 03:34:12;;;;;;;31.60;14.63;;;;;;;;;;5014181;28;20037;-58
2024/03/08 03:36:38;;;;;;;33.85;15.25;;;;;;;;;;5007977;28;20022;-57
2024/03/08 03:39:10;;;;;;;33.53;14.90;;;;;;;;;;5000428;28;20026;-56
2024/03/08 03:41:35;;;;;;;32.30;14.73;;;;;;;;;;5009819;28;20029;-56
2024/03/08 03:44:01;;;;;;;37.23;16.17;;;;;;;;;;5008451;28;20025;-57
2024/03/08 03:46:27;;;;;;;31.90;14.93;;;;;;;;;;5008364;28;20865;-59
2024/03/08 03:48:52;;;;;;;33.50;15.15;;;;;;;;;;5009082;28;20030;-57
2024/03/08 03:51:17;;;;;;;33.75;15.07;;;;;;;;;;5008033;28;20033;-57
2024/03/08 03:53:42;;;;;;;34.23;14.60;;;;;;;;;;5007100;28;20033;-56
2024/03/08 03:56:07;;;;;;;32.63;14.93;;;;;;;;;;4997292;28;20026;-57
2024/03/08 03:58:33;;;;;;;30.27;13.68;;;;;;;;;;4999244;28;20092;-57
2024/03/08 04:00:58;;;;;;;30.42;13.63;;;;;;;;;;5008604;28;20028;-59
2024/03/08 04:03:23;;;;;;;30.80;13.82;;;;;;;;;;5008330;28;20021;-57
2024/03/08 04:05:48;;;;;;;29.80;14.13;;;;;;;;;;5011063;28;20073;-58
2024/03/08 04:08:13;;;;;;;29.57;13.60;;;;;;;;;;5009290;28;20092;-58
2024/03/08 04:10:38;;;;;;;32.53;14.67;;;;;;;;;;5008815;28;20994;-57
2024/03/08 04:13:04;;;;;;;32.95;14.98;;;;;;;;;;5008165;28;21031;-58
2024/03/08 04:15:30;;;;;;;33.03;14.70;;;;;;;;;;5003788;28;20041;-58
2024/03/08 04:17:57;;;;;;;34.42;15.32;;;;;;;;;;5008408;28;20456;-61
2024/03/08 04:20:22;;;;;;;31.33;15.05;;;;;;;;;;5006367;28;20689;-59
2024/03/08 04:22:49;;;;;;;31.02;14.20;;;;;;;;;;5007913;28;20096;-58
2024/03/08 04:25:14;;;;;;;34.20;15.02;;;;;;;;;;5007855;28;20041;-58
2024/03/08 04:27:40;;;;;;;34.27;15.53;;;;;;;;;;5008069;28;20028;-57
2024/03/08 04:30:07;;;;;;;32.42;14.20;;;;;;;;;;5008775;28;20047;-64
2024/03/08 04:32:32;;;;;;;36.45;14.60;;;;;;;;;;5008727;28;20290;-58
2024/03/08 04:34:58;;;;;;;36.93;16.00;;;;;;;;;;5009610;28;20515;-57
2024/03/08 04:37:23;;;;;;;33.05;15.30;;;;;;;;;;5009483;28;20018;-57
2024/03/08 04:39:49;;;;;;;32.92;15.02;;;;;;;;;;5009848;28;20615;-57
2024/03/08 04:42:14;;;;;;;34.70;14.90;;;;;;;;;;5009191;28;20087;-58
2024/03/08 04:44:40;;;;;;;31.80;15.23;;;;;;;;;;5013025;28;20459;-59
2024/03/08 04:47:08;;;;;;;36.33;14.57;;;;;;;;;;5010131;28;20389;-58
2024/03/08 04:49:36;;;;;;;31.45;13.82;;;;;;;;;;5006489;28;20021;-57
2024/03/08 04:52:02;;;;;;;31.65;13.82;;;;;;;;;;5008289;28;20018;-56
2024/03/08 04:54:28;;;;;;;32.75;14.27;;;;;;;;;;5007849;28;20706;-58
2024/03/08 04:56:53;;;;;;;34.87;15.17;;;;;;;;;;5007606;28;20121;-57
2024/03/08 04:59:19;;;;;;;34.28;14.20;;;;;;;;;;5000918;28;20432;-57
2024/03/08 05:01:44;;;;;;;32.13;14.02;;;;;;;;;;5007250;28;20022;-57
2024/03/08 05:04:09;;;;;;;30.50;13.87;;;;;;;;;;5007524;28;20088;-58
2024/03/08 05:06:34;;;;;;;30.65;14.05;;;;;;;;;;5004119;28;20037;-57
2024/03/08 05:08:59;;;;;;;31.63;13.93;;;;;;;;;;5000860;28;20084;-57
2024/03/08 05:11:25;;;;;;;35.20;14.43;;;;;;;;;;5003916;28;20029;-57
2024/03/08 05:13:50;;;;;;;32.53;14.98;;;;;;;;;;5010774;28;20021;-55
2024/03/08 05:16:15;;;;;;;32.58;13.73;;;;;;;;;;5010838;28;20037;-58
2024/03/08 05:18:41;;;;;;;33.23;14.47;;;;;;;;;;5018340;28;20025;-58
2024/03/08 05:21:07;;;;;;;32.90;14.63;;;;;;;;;;5012613;28;20026;-57
2024/03/08 05:23:32;;;;;;;35.42;14.50;;;;;;;;;;4988501;28;20037;-57
2024/03/08 05:25:57;;;;;;;31.42;14.05;;;;;;;;;;4999550;28;20536;-59
2024/03/08 05:28:22;;;;;;;31.23;14.23;;;;;;;;;;4993535;28;20064;-58
2024/03/08 05:30:47;;;;;;;32.80;14.60;;;;;;;;;;5008348;28;20050;-56
2024/03/08 05:33:14;;;;;;;33.07;14.53;;;;;;;;;;5010835;28;20105;-58
2024/03/08 05:35:40;;;;;;;30.75;14.48;;;;;;;;;;5002335;28;20461;-57
2024/03/08 05:38:05;;;;;;;34.78;15.75;;;;;;;;;;5004262;28;20052;-56
2024/03/08 05:40:31;;;;;;;37.70;14.88;;;;;;;;;;5002050;28;20083;-57
2024/03/08 05:42:57;;;;;;;36.60;15.27;;;;;;;;;;5007748;28;20022;-57
2024/03/08 05:45:25;;;;;;;36.63;15.85;;;;;;;;;;5006702;28;20486;-58
2024/03/08 05:47:51;;;;;;;37.00;15.52;;;;;;;;;;5006292;28;20030;-58
2024/03/08 05:50:16;;;;;;;36.45;15.40;;;;;;;;;;5006806;28;20026;-57
2024/03/08 05:52:41;;;;;;;30.97;13.90;;;;;;;;;;5008300;28;20026;-57
2024/03/08 05:55:08;;;;;;;34.03;14.80;;;;;;;;;;5000008;28;20212;-58
2024/03/08 05:57:33;;;;;;;34.45;15.13;;;;;;;;;;5010935;28;20033;-58
2024/03/08 05:59:58;;;;;;;34.90;14.85;;;;;;;;;;5007858;28;20050;-58
2024/03/08 06:02:23;;;;;;;38.50;15.97;;;;;;;;;;5021968;28;20041;-58
2024/03/08 06:04:49;;;;;;;33.72;15.82;;;;;;;;;;5028226;28;20022;-56
2024/03/08 06:07:14;;;;;;;32.90;15.07;;;;;;;;;;5022139;28;20058;-56
2024/03/08 06:09:40;;;;;;;36.03;15.17;;;;;;;;;;5012371;28;20524;-56
2024/03/08 06:12:06;;;;;;;37.93;17.10;;;;;;;;;;5011199;28;20106;-57
2024/03/08 06:14:31;;;;;;;35.60;16.42;;;;;;;;;;5014086;28;20102;-58
2024/03/08 06:16:57;;;;;;;34.05;15.02;;;;;;;;;;5013540;28;20093;-59
2024/03/08 06:19:22;;;;;;;34.28;15.63;;;;;;;;;;5009778;28;20029;-57
2024/03/08 06:21:47;;;;;;;35.65;15.80;;;;;;;;;;5012668;28;20018;-58
2024/03/08 06:24:14;;;;;;;34.85;15.93;;;;;;;;;;5005989;28;20045;-57
2024/03/08 06:26:40;;;;;;;;;;;;;;;;;;5014540;28;20402;-58
2024/03/08 06:29:06;;;;;;;30.38;13.27;;;;;;;;;;5014352;28;19920;-58
2024/03/08 06:31:31;;;;;;;35.72;14.50;;;;;;;;;;5014184;28;20504;-57
2024/03/08 06:33:57;;;;;;;34.47;15.27;;;;;;;;;;5013829;28;20617;-57
2024/03/08 06:36:23;;;;;;;32.20;15.35;;;;;;;;;;5003689;28;20460;-59
2024/03/08 06:38:48;;;;;;;35.88;15.95;;;;;;;;;;5004999;28;20049;-57
2024/03/08 06:41:15;;;;;;;35.88;15.63;;;;;;;;;;5003986;28;20026;-57
2024/03/08 06:43:41;;;;;;;31.77;14.30;;;;;;;;;;5013290;28;20026;-58
2024/03/08 06:46:06;;;;;;;39.50;16.05;;;;;;;;;;5004527;28;20037;-57
2024/03/08 06:48:32;;;;;;;33.13;15.02;;;;;;;;;;5011961;28;20049;-57
2024/03/08 06:50:57;;;;;;;37.03;16.77;;;;;;;;;;5011821;28;20045;-56
2024/03/08 06:53:22;;;;;;;33.78;14.75;;;;;;;;;;5012514;28;20038;-57
2024/03/08 06:55:47;;;;;;;33.47;15.53;;;;;;;;;;5012574;28;20091;-58
2024/03/08 06:58:13;;;;;;;32.80;15.63;;;;;;;;;;5013284;28;20502;-57
2024/03/08 07:00:38;;;;;;;35.77;15.97;;;;;;;;;;5014180;28;20014;-57
2024/03/08 07:03:03;;;;;;;33.67;15.50;;;;;;;;;;5016164;28;20482;-58
2024/03/08 07:05:29;;;;;;;37.28;16.80;;;;;;;;;;5011190;28;20463;-57
2024/03/08 07:07:54;;;;;;;34.95;15.70;;;;;;;;;;5011299;28;20025;-57
2024/03/08 07:10:20;;;;;;;32.83;15.43;;;;;;;;;;5013126;28;20026;-57
2024/03/08 07:12:46;;;;;;;31.13;15.15;;;;;;;;;;5013060;28;20018;-57
2024/03/08 07:15:13;;;;;;;35.63;15.30;;;;;;;;;;5008476;28;20460;-57
2024/03/08 07:17:39;;;;;;;;;;;;;;;;;;5012043;28;20498;-56
2024/03/08 07:20:10;;;;;;;34.00;15.18;;;;;;;;;;5008346;28;19963;-58
2024/03/08 07:22:36;;;;;;;35.15;16.20;;;;;;;;;;4998648;28;20028;-59
2024/03/08 07:25:19;;;;;;;37.00;14.32;;;;;;;;;;5014639;28;20521;-57
2024/03/08 07:27:45;;;;;;;32.45;15.65;;;;;;;;;;5013408;28;20053;-57
2024/03/08 07:30:11;;;;;;;31.90;16.17;;;;;;;;;;5013660;28;20490;-57
2024/03/08 07:32:36;;;;;;;38.88;15.77;;;;;;;;;;5009187;28;20033;-57
2024/03/08 07:35:02;;;;;;;35.00;16.85;;;;;;;;;;5013367;28;20053;-57
2024/03/08 07:37:27;;;;;;;32.88;16.13;;;;;;;;;;5012940;28;20030;-57
2024/03/08 07:39:52;;;;;;;33.60;15.47;;;;;;;;;;5012826;28;20021;-59
2024/03/08 07:42:17;;;;;;;34.38;15.95;;;;;;;;;;5011753;28;20472;-57
2024/03/08 07:44:42;;;;;;;35.22;16.50;;;;;;;;;;5008915;28;20038;-57
2024/03/08 07:47:09;;;;;;;37.60;16.02;;;;;;;;;;5008221;28;20483;-57
2024/03/08 07:49:34;;;;;;;33.95;15.98;;;;;;;;;;5004242;28;20037;-57
2024/03/08 07:51:59;;;;;;;34.23;14.80;;;;;;;;;;5010799;28;20029;-57
2024/03/08 07:54:25;;;;;;;37.90;16.63;;;;;;;;;;5012130;28;20421;-59
2024/03/08 07:56:51;;;;;;;34.20;15.93;;;;;;;;;;5015511;28;20029;-58
2024/03/08 07:59:16;;;;;;;34.37;15.93;;;;;;;;;;5012437;28;20018;-58
2024/03/08 08:01:41;;;;;;;40.60;18.03;;;;;;;;;;5010135;28;20469;-61
2024/03/08 08:04:08;;;;;;;33.23;16.90;;;;;;;;;;5009301;28;20472;-58
2024/03/08 08:06:33;;;;;;;32.95;16.02;;;;;;;;;;5012431;28;20022;-58
2024/03/08 08:08:58;;;;;;;36.75;15.68;;;;;;;;;;5016586;28;20029;-57
2024/03/08 08:11:25;;;;;;;34.00;16.40;;;;;;;;;;5005644;28;20038;-57
2024/03/08 08:13:50;;;;;;;31.10;15.50;;;;;;;;;;5004530;28;20018;-57
2024/03/08 08:16:16;;;;;;;33.10;14.50;;;;;;;;;;5011788;28;20047;-58
2024/03/08 08:18:41;;;;;;;31.23;15.53;;;;;;;;;;5011536;28;20033;-58
2024/03/08 08:21:06;;;;;;;31.60;14.77;;;;;;;;;;5011572;28;20026;-58
2024/03/08 08:23:32;;;;;;;31.53;13.77;;;;;;;;;;5015016;28;20548;-58
2024/03/08 08:25:57;;;;;;;34.10;15.38;;;;;;;;;;5011500;28;20037;-57
2024/03/08 08:28:22;;;;;;;30.25;14.27;;;;;;;;;;5012560;28;20022;-56
2024/03/08 08:30:48;;;;;;;33.58;15.45;;;;;;;;;;5008980;28;20026;-58
2024/03/08 08:33:14;;;;;;;27.02;14.00;;;;;;;;;;5009912;28;20017;-58
2024/03/08 08:35:39;;;;;;;32.42;14.98;;;;;;;;;;5011379;28;20021;-57
2024/03/08 08:38:04;;;;;;;31.90;15.23;;;;;;;;;;5011702;28;20496;-57
2024/03/08 08:40:31;;;;;;;28.27;13.05;;;;;;;;;;5012126;28;20434;-58
2024/03/08 08:42:59;;;;;;;31.77;14.15;;;;;;;;;;5012109;28;20521;-57
2024/03/08 08:45:25;;;;;;;28.05;13.73;;;;;;;;;;5014031;28;20030;-59
2024/03/08 08:47:50;;;;;;;26.98;13.13;;;;;;;;;;5015824;28;20029;-58
2024/03/08 08:50:16;;;;;;;26.08;12.60;;;;;;;;;;4998679;28;20571;-58
2024/03/08 08:52:43;;;;;;;30.42;13.98;;;;;;;;;;4996513;28;20033;-57
2024/03/08 08:55:08;;;;;;;27.73;13.68;;;;;;;;;;5011386;28;20026;-58
2024/03/08 08:57:35;;;;;;;27.40;13.02;;;;;;;;;;5011283;28;20028;-57
2024/03/08 09:00:00;;;;;;;26.10;13.73;;;;;;;;;;5016525;28;20028;-57
2024/03/08 09:02:25;;;;;;;26.87;13.47;;;;;;;;;;5007433;28;20021;-59
2024/03/08 09:04:51;;;;;;;26.67;13.20;;;;;;;;;;4996584;28;20026;-57
2024/03/08 09:07:18;;;;;;;25.33;12.30;;;;;;;;;;5006699;28;20027;-58
2024/03/08 09:09:43;;;;;;;27.13;12.80;;;;;;;;;;5009684;28;20509;-59
2024/03/08 09:12:11;;;;;;;26.53;13.50;;;;;;;;;;5011290;28;20018;-59
2024/03/08 09:14:36;;;;;;;27.30;13.15;;;;;;;;;;5017023;28;20474;-57
2024/03/08 09:17:02;;;;;;;25.70;12.57;;;;;;;;;;5009167;28;20022;-58
2024/03/08 09:19:28;;;;;;;25.52;12.60;;;;;;;;;;5015098;28;20022;-58
2024/03/08 09:21:54;;;;;;;26.60;12.60;;;;;;;;;;5011915;28;20034;-58
2024/03/08 09:24:19;;;;;;;27.40;13.18;;;;;;;;;;5011927;28;20029;-59
2024/03/08 09:26:44;;;;;;;25.83;12.57;;;;;;;;;;5016075;28;20109;-57
2024/03/08 09:29:10;;;;;;;26.77;12.47;;;;;;;;;;5013825;28;20406;-56
2024/03/08 09:31:37;;;;;;;27.70;12.35;;;;;;;;;;5017131;28;20405;-57
2024/03/08 09:34:03;;;;;;;27.55;12.50;;;;;;;;;;5017059;28;20014;-58
2024/03/08 09:36:28;;;;;;;26.27;12.52;;;;;;;;;;5016309;28;20053;-58
2024/03/08 09:38:53;;;;;;;26.70;13.65;;;;;;;;;;5017154;28;20022;-59
2024/03/08 09:41:18;;;;;;;24.50;12.23;;;;;;;;;;5014319;28;20026;-56
2024/03/08 09:43:44;;;;;;;24.37;12.63;;;;;;;;;;5010660;28;20021;-57
2024/03/08 09:46:10;;;;;;;27.77;12.88;;;;;;;;;;5016020;28;20476;-57
2024/03/08 09:48:36;;;;;;;22.52;11.73;;;;;;;;;;5017694;28;20021;-58
2024/03/08 09:51:01;;;;;;;25.50;12.90;;;;;;;;;;5015942;28;20022;-59
2024/03/08 09:53:26;;;;;;;25.05;12.85;;;;;;;;;;5016493;28;20049;-58
2024/03/08 09:55:52;;;;;;;27.03;12.37;;;;;;;;;;5015206;28;20022;-57
2024/03/08 10:00:44;;;;;;;25.75;11.93;;;;;;;;;;5012522;28;20093;-57
2024/03/08 10:03:10;;;;;;;25.63;12.32;;;;;;;;;;5010773;28;20053;-58
2024/03/08 10:05:36;;;;;;;24.38;11.55;;;;;;;;;;5014705;28;20037;-58
2024/03/08 10:08:01;;;;;;;25.60;11.65;;;;;;;;;;5014940;28;20021;-58
2024/03/08 10:10:26;;;;;;;24.73;12.02;;;;;;;;;;5014382;28;20056;-57
2024/03/08 10:12:52;;;;;;;24.30;11.83;;;;;;;;;;5014739;28;20026;-57
2024/03/08 10:15:17;;;;;;;21.88;11.63;;;;;;;;;;5019525;28;20487;-56
2024/03/08 10:17:43;;;;;;;26.27;12.30;;;;;;;;;;5008072;28;20046;-57
2024/03/08 10:20:17;;;;;;;26.15;12.45;;;;;;;;;;5006137;28;20029;-58
2024/03/08 10:22:43;;;;;;;26.17;12.48;;;;;;;;;;5015325;28;20022;-58
2024/03/08 10:25:10;;;;;;;20.83;11.30;;;;;;;;;;5016959;28;20429;-57
2024/03/08 10:27:35;;;;;;;25.05;11.60;;;;;;;;;;5021463;28;20018;-57
2024/03/08 10:30:02;;;;;;;25.30;12.57;;;;;;;;;;5015525;28;20030;-57
2024/03/08 10:32:27;;;;;;;24.13;11.85;;;;;;;;;;5023972;28;20033;-57
2024/03/08 10:34:52;;;;;;;27.58;11.43;;;;;;;;;;5017940;28;20026;-58
2024/03/08 10:37:22;;;;;;;23.23;11.68;;;;;;;;;;5015613;28;20030;-57
2024/03/08 10:39:52;;;;;;;25.02;12.43;;;;;;;;;;5014887;28;20030;-58
2024/03/08 10:42:22;;;;;;;25.38;12.95;;;;;;;;;;5015278;28;20022;-58
2024/03/08 10:45:03;;;;;;;21.40;11.50;;;;;;;;;;5010781;28;20026;-58
2024/03/08 10:47:30;;;;;;;22.42;11.40;;;;;;;;;;5015260;28;20054;-58
2024/03/08 10:49:55;;;;;;;;;;;;;;;;;;5022683;28;20101;-58
2024/03/08 10:52:22;;;;;;;26.45;11.55;;;;;;;;;;5023176;28;19968;-57
2024/03/08 10:54:47;;;;;;;23.85;11.88;;;;;;;;;;5015727;28;20010;-58
2024/03/08 10:57:15;;;;;;;24.15;11.77;;;;;;;;;;5015336;28;20037;-57
2024/03/08 10:59:42;;;;;;;22.95;11.70;;;;;;;;;;5014132;28;20018;-57
2024/03/08 11:02:08;;;;;;;23.17;12.20;;;;;;;;;;5011971;28;20026;-58
2024/03/08 11:04:33;;;;;;;22.00;11.63;;;;;;;;;;5002344;28;20097;-59
2024/03/08 11:07:05;;;;;;;24.13;11.73;;;;;;;;;;5014021;28;20116;-57
2024/03/08 11:09:31;;;;;;;23.55;12.00;;;;;;;;;;5013604;28;20848;-58
2024/03/08 11:12:15;;;;;;;23.00;12.45;;;;;;;;;;5013619;28;20022;-57
2024/03/08 11:14:48;;;;;;;22.35;12.23;;;;;;;;;;5013133;28;20024;-57
2024/03/08 11:17:14;;;;;;;20.48;11.18;;;;;;;;;;5013901;28;20386;-58
2024/03/08 11:19:45;;;;;;;22.47;11.83;;;;;;;;;;5015950;28;20025;-59
2024/03/08 11:22:19;;;;;;;24.05;12.25;;;;;;;;;;5008203;28;20092;-59
2024/03/08 11:24:45;;;;;;;22.10;10.90;;;;;;;;;;5013355;28;20018;-58
2024/03/08 11:27:11;;;;;;;22.80;12.55;;;;;;;;;;5013076;28;20036;-58
2024/03/08 11:29:39;;;;;;;22.80;11.93;;;;;;;;;;5014231;28;20087;-57
2024/03/08 11:32:09;;;;;;;23.48;12.25;;;;;;;;;;5018943;28;20029;-58
2024/03/08 11:34:34;;;;;;;24.08;11.30;;;;;;;;;;5027005;28;20029;-58
2024/03/08 11:36:59;;;;;;;21.90;11.37;;;;;;;;;;5021961;28;20032;-58
2024/03/08 11:39:25;;;;;;;22.07;11.33;;;;;;;;;;5014600;28;20440;-59
2024/03/08 11:41:51;;;;;;;22.15;11.25;;;;;;;;;;5010373;28;20040;-59
2024/03/08 11:44:17;;;;;;;20.17;10.60;;;;;;;;;;5012953;28;20421;-58
2024/03/08 11:46:46;;;;;;;22.55;10.40;;;;;;;;;;5013836;28;20037;-56
2024/03/08 11:49:12;;;;;;;18.92;9.45;;;;;;;;;;5010207;28;20464;-58
2024/03/08 11:51:37;;;;;;;17.80;9.63;;;;;;;;;;5013210;28;20018;-58
2024/03/08 11:54:03;;;;;;;20.55;10.32;;;;;;;;;;5012452;28;20121;-58
2024/03/08 11:56:28;;;;;;;20.90;10.32;;;;;;;;;;5011665;28;20026;-58
2024/03/08 11:58:56;;;;;;;18.05;9.52;;;;;;;;;;5011943;28;20387;-59
2024/03/08 12:01:23;;;;;;;19.70;9.45;;;;;;;;;;5012513;28;20072;-57
2024/03/08 12:03:52;;;;;;;18.33;9.15;;;;;;;;;;5013183;28;20028;-59
2024/03/08 12:06:18;;;;;;;16.83;9.35;;;;;;;;;;5012139;28;20069;-58
2024/03/08 12:08:43;;;;;;;15.68;8.30;;;;;;;;;;5012104;28;20073;-59
2024/03/08 12:11:10;;;;;;;15.43;8.65;;;;;;;;;;5012538;28;20021;-58
2024/03/08 12:13:35;;;;;;;18.88;9.55;;;;;;;;;;5009507;28;20024;-58
2024/03/08 12:16:03;;;;;;;15.88;9.07;;;;;;;;;;5009860;28;20104;-57
2024/03/08 12:18:29;;;;;;;17.90;9.18;;;;;;;;;;5012661;28;20026;-58
2024/03/08 12:21:04;;;;;;;17.38;8.45;;;;;;;;;;5012490;28;20021;-59
2024/03/08 12:23:29;;;;;;;18.08;9.15;;;;;;;;;;5009104;28;20029;-58
2024/03/08 12:25:54;;;;;;;17.17;8.73;;;;;;;;;;5005931;28;20076;-58
2024/03/08 12:28:21;;;;;;;16.80;8.90;;;;;;;;;;5012484;28;20545;-58
2024/03/08 12:30:52;;;;;;;16.95;8.75;;;;;;;;;;5011385;28;20110;-59
2024/03/08 12:33:17;;;;;;;16.85;8.15;;;;;;;;;;5012106;28;20018;-59
2024/03/08 12:35:50;;;;;;;16.23;8.40;;;;;;;;;;5009383;28;20059;-58
2024/03/08 12:38:15;;;;;;;16.38;8.85;;;;;;;;;;5009295;28;20088;-58
2024/03/08 12:40:41;;;;;;;17.13;9.18;;;;;;;;;;5012061;28;20101;-58
2024/03/08 12:43:07;;;;;;;;;;;;;;;;;;5013755;28;20029;-58
2024/03/08 12:45:32;;;;;;;16.80;8.65;;;;;;;;;;5013717;28;20433;-58
2024/03/08 12:47:58;;;;;;;17.27;9.10;;;;;;;;;;5013078;28;20045;-58
2024/03/08 12:50:27;;;;;;;16.55;8.20;;;;;;;;;;5012389;28;20470;-58
2024/03/08 12:52:55;;;;;;;17.63;8.90;;;;;;;;;;5012179;28;20060;-58
2024/03/08 12:55:21;;;;;;;15.98;8.50;;;;;;;;;;5009305;28;20022;-59
2024/03/08 12:57:46;;;;;;;15.35;8.50;;;;;;;;;;5003598;28;20399;-58
2024/03/08 13:00:19;;;;;;;17.75;8.77;;;;;;;;;;5009636;28;20100;-57
2024/03/08 13:02:47;;;;;;;15.75;8.05;;;;;;;;;;5020189;28;20037;-59
2024/03/08 13:05:14;;;;;;;17.58;8.50;;;;;;;;;;5011324;28;20540;-60
2024/03/08 13:07:39;;;;;;;16.02;8.80;;;;;;;;;;5020694;28;20037;-58
2024/03/08 13:10:04;;;;;;;15.77;8.77;;;;;;;;;;5011526;28;20022;-58
2024/03/08 13:12:29;;;;;;;16.95;8.32;;;;;;;;;;5010779;28;20573;-59
2024/03/08 13:14:56;;;;;;;17.55;8.63;;;;;;;;;;5012869;28;20029;-58
2024/03/08 13:17:22;;;;;;;16.80;8.07;;;;;;;;;;5011663;28;20032;-59
2024/03/08 13:19:47;;;;;;;17.73;8.88;;;;;;;;;;5011590;28;20033;-58
2024/03/08 13:22:13;;;;;;;18.10;9.73;;;;;;;;;;5011897;28;20506;-57
2024/03/08 13:24:40;;;;;;;16.58;8.93;;;;;;;;;;5011457;28;20037;-58
2024/03/08 13:27:16;;;;;;;17.73;9.18;;;;;;;;;;5012421;28;20104;-59
2024/03/08 13:29:42;;;;;;;14.45;7.93;;;;;;;;;;5013741;28;20026;-57
2024/03/08 13:32:11;;;;;;;16.25;8.43;;;;;;;;;;5008991;28;20092;-59
2024/03/08 13:34:36;;;;;;;16.05;8.02;;;;;;;;;;5013760;28;20613;-57
2024/03/08 13:37:03;;;;;;;16.20;8.30;;;;;;;;;;5013689;28;20029;-59
2024/03/08 13:39:29;;;;;;;15.85;8.57;;;;;;;;;;5014102;28;20435;-59
2024/03/08 13:41:54;;;;;;;15.93;7.88;;;;;;;;;;5012715;28;20022;-58
2024/03/08 13:44:19;;;;;;;14.55;8.30;;;;;;;;;;5011854;28;20030;-59
2024/03/08 13:46:46;;;;;;;14.43;8.10;;;;;;;;;;5011172;28;20038;-60
2024/03/08 13:49:11;;;;;;;16.27;7.68;;;;;;;;;;5012270;28;20022;-59
2024/03/08 13:51:37;;;;;;;15.15;7.45;;;;;;;;;;5013980;28;20022;-57
2024/03/08 13:54:02;;;;;;;14.33;7.40;;;;;;;;;;5011969;28;20032;-59
2024/03/08 13:56:30;;;;;;;18.17;8.43;;;;;;;;;;5010822;28;20429;-59
2024/03/08 13:58:57;;;;;;;14.75;8.20;;;;;;;;;;5009542;28;20024;-58
2024/03/08 14:01:22;;;;;;;15.93;8.23;;;;;;;;;;5003306;28;20068;-57
2024/03/08 14:03:47;;;;;;;15.55;7.82;;;;;;;;;;5012672;28;20449;-58
2024/03/08 14:06:12;;;;;;;14.20;7.60;;;;;;;;;;5007713;28;20025;-58
2024/03/08 14:08:37;;;;;;;14.55;7.32;;;;;;;;;;5010822;28;20560;-58
2024/03/08 14:11:10;;;;;;;15.20;7.67;;;;;;;;;;5005711;28;20029;-58
2024/03/08 14:13:36;;;;;;;12.73;6.85;;;;;;;;;;5010399;28;20026;-57
2024/03/08 14:16:01;;;;;;;13.00;7.10;;;;;;;;;;5007121;28;20029;-59